sensor_id;sensor_type;location;lat;lon;timestamp;P1;durP1;ratioP1;P2;durP2;ratioP2
7719;SDS011;3902;49.474;8.616;2024-01-15T00:02:21;27.73;;;18.47;;
7719;SDS011;3902;49.474;8.616;2024-01-15T00:04:47;30.50;;;18.10;;
7719;SDS011;3902;49.474;8.616;2024-01-15T00:07:12;27.80;;;17.87;;
7719;SDS011;3902;49.474;8.616;2024-01-15T00:09:39;28.70;;;17.63;;
7719;SDS011;3902;49.474;8.616;2024-01-15T00:12:05;28.47;;;17.67;;
7719;SDS011;3902;49.474;8.616;2024-01-15T00:14:31;24.33;;;14.30;;
7719;SDS011;3902;49.474;8.616;2024-01-15T00:16:56;25.93;;;17.17;;
7719;SDS011;3902;49.474;8.616;2024-01-15T00:19:22;27.70;;;17.37;;
7719;SDS011;3902;49.474;8.616;2024-01-15T00:21:48;25.00;;;16.90;;
7719;SDS011;3902;49.474;8.616;2024-01-15T00:24:14;26.70;;;17.33;;
7719;SDS011;3902;49.474;8.616;2024-01-15T00:26:40;26.43;;;17.17;;
7719;SDS011;3902;49.474;8.616;2024-01-15T00:29:09;26.77;;;17.50;;
7719;SDS011;3902;49.474;8.616;2024-01-15T00:31:34;24.43;;;16.20;;
7719;SDS011;3902;49.474;8.616;2024-01-15T00:34:00;27.37;;;17.13;;
7719;SDS011;3902;49.474;8.616;2024-01-15T00:36:26;24.10;;;15.77;;
7719;SDS011;3902;49.474;8.616;2024-01-15T00:38:51;25.97;;;16.90;;
7719;SDS011;3902;49.474;8.616;2024-01-15T00:41:17;26.20;;;17.70;;
7719;SDS011;3902;49.474;8.616;2024-01-15T00:43:46;24.63;;;16.90;;
7719;SDS011;3902;49.474;8.616;2024-01-15T00:46:14;28.87;;;17.40;;
7719;SDS011;3902;49.474;8.616;2024-01-15T00:48:39;26.93;;;17.50;;
7719;SDS011;3902;49.474;8.616;2024-01-15T00:51:05;32.33;;;18.23;;
7719;SDS011;3902;49.474;8.616;2024-01-15T00:53:30;26.43;;;17.37;;
7719;SDS011;3902;49.474;8.616;2024-01-15T00:55:56;26.37;;;16.70;;
7719;SDS011;3902;49.474;8.616;2024-01-15T00:58:22;29.77;;;18.00;;
7719;SDS011;3902;49.474;8.616;2024-01-15T01:00:47;32.30;;;19.20;;
7719;SDS011;3902;49.474;8.616;2024-01-15T01:03:13;25.87;;;16.70;;
7719;SDS011;3902;49.474;8.616;2024-01-15T01:05:38;29.37;;;18.83;;
7719;SDS011;3902;49.474;8.616;2024-01-15T01:08:04;25.83;;;17.20;;
7719;SDS011;3902;49.474;8.616;2024-01-15T01:10:29;24.43;;;16.33;;
7719;SDS011;3902;49.474;8.616;2024-01-15T01:12:55;27.60;;;17.27;;
7719;SDS011;3902;49.474;8.616;2024-01-15T01:15:21;29.13;;;18.70;;
7719;SDS011;3902;49.474;8.616;2024-01-15T01:17:46;28.57;;;17.63;;
7719;SDS011;3902;49.474;8.616;2024-01-15T01:20:12;30.60;;;18.37;;
7719;SDS011;3902;49.474;8.616;2024-01-15T01:22:37;27.00;;;17.50;;
7719;SDS011;3902;49.474;8.616;2024-01-15T01:25:04;26.60;;;16.93;;
7719;SDS011;3902;49.474;8.616;2024-01-15T01:27:30;30.13;;;18.57;;
7719;SDS011;3902;49.474;8.616;2024-01-15T01:29:55;30.53;;;19.30;;
7719;SDS011;3902;49.474;8.616;2024-01-15T01:32:21;27.17;;;18.33;;
7719;SDS011;3902;49.474;8.616;2024-01-15T01:34:46;33.40;;;20.30;;
7719;SDS011;3902;49.474;8.616;2024-01-15T01:37:12;29.33;;;18.73;;
7719;SDS011;3902;49.474;8.616;2024-01-15T01:39:38;29.80;;;19.63;;
7719;SDS011;3902;49.474;8.616;2024-01-15T01:42:04;32.27;;;19.67;;
7719;SDS011;3902;49.474;8.616;2024-01-15T01:44:30;30.60;;;19.70;;
7719;SDS011;3902;49.474;8.616;2024-01-15T01:46:56;29.73;;;19.50;;
7719;SDS011;3902;49.474;8.616;2024-01-15T01:49:23;33.10;;;19.93;;
7719;SDS011;3902;49.474;8.616;2024-01-15T01:51:50;33.37;;;20.20;;
7719;SDS011;3902;49.474;8.616;2024-01-15T01:54:16;35.00;;;19.73;;
7719;SDS011;3902;49.474;8.616;2024-01-15T01:56:43;32.10;;;20.60;;
7719;SDS011;3902;49.474;8.616;2024-01-15T01:59:09;31.77;;;20.00;;
7719;SDS011;3902;49.474;8.616;2024-01-15T02:01:36;32.33;;;19.80;;
7719;SDS011;3902;49.474;8.616;2024-01-15T02:04:02;31.27;;;19.67;;
7719;SDS011;3902;49.474;8.616;2024-01-15T02:06:28;28.83;;;18.63;;
7719;SDS011;3902;49.474;8.616;2024-01-15T02:08:54;32.37;;;19.77;;
7719;SDS011;3902;49.474;8.616;2024-01-15T02:11:20;30.23;;;18.63;;
7719;SDS011;3902;49.474;8.616;2024-01-15T02:13:46;32.07;;;19.60;;
7719;SDS011;3902;49.474;8.616;2024-01-15T02:16:12;31.97;;;19.60;;
7719;SDS011;3902;49.474;8.616;2024-01-15T02:18:41;31.53;;;19.67;;
7719;SDS011;3902;49.474;8.616;2024-01-15T02:21:07;29.70;;;18.47;;
7719;SDS011;3902;49.474;8.616;2024-01-15T02:23:33;27.83;;;18.87;;
7719;SDS011;3902;49.474;8.616;2024-01-15T02:25:58;30.70;;;17.70;;
7719;SDS011;3902;49.474;8.616;2024-01-15T02:28:24;28.87;;;17.77;;
7719;SDS011;3902;49.474;8.616;2024-01-15T02:30:50;32.47;;;19.23;;
7719;SDS011;3902;49.474;8.616;2024-01-15T02:33:15;28.63;;;18.40;;
7719;SDS011;3902;49.474;8.616;2024-01-15T02:35:41;30.90;;;19.10;;
7719;SDS011;3902;49.474;8.616;2024-01-15T02:38:06;26.03;;;17.67;;
7719;SDS011;3902;49.474;8.616;2024-01-15T02:40:32;27.20;;;18.33;;
7719;SDS011;3902;49.474;8.616;2024-01-15T02:42:58;27.57;;;18.10;;
7719;SDS011;3902;49.474;8.616;2024-01-15T02:45:23;25.70;;;17.50;;
7719;SDS011;3902;49.474;8.616;2024-01-15T02:47:49;28.20;;;16.77;;
7719;SDS011;3902;49.474;8.616;2024-01-15T02:50:15;26.30;;;17.60;;
7719;SDS011;3902;49.474;8.616;2024-01-15T02:52:41;26.13;;;17.30;;
7719;SDS011;3902;49.474;8.616;2024-01-15T02:55:07;26.67;;;16.73;;
7719;SDS011;3902;49.474;8.616;2024-01-15T02:57:32;24.77;;;17.10;;
7719;SDS011;3902;49.474;8.616;2024-01-15T02:59:58;26.73;;;16.33;;
7719;SDS011;3902;49.474;8.616;2024-01-15T03:02:24;25.93;;;16.60;;
7719;SDS011;3902;49.474;8.616;2024-01-15T03:04:52;26.10;;;16.57;;
7719;SDS011;3902;49.474;8.616;2024-01-15T03:07:17;26.90;;;16.90;;
7719;SDS011;3902;49.474;8.616;2024-01-15T03:09:43;22.03;;;14.73;;
7719;SDS011;3902;49.474;8.616;2024-01-15T03:12:09;20.80;;;14.13;;
7719;SDS011;3902;49.474;8.616;2024-01-15T03:14:35;25.23;;;16.37;;
7719;SDS011;3902;49.474;8.616;2024-01-15T03:17:00;23.63;;;15.47;;
7719;SDS011;3902;49.474;8.616;2024-01-15T03:19:26;25.43;;;16.23;;
7719;SDS011;3902;49.474;8.616;2024-01-15T03:21:52;23.47;;;15.00;;
7719;SDS011;3902;49.474;8.616;2024-01-15T03:24:17;23.87;;;15.67;;
7719;SDS011;3902;49.474;8.616;2024-01-15T03:26:43;23.60;;;14.67;;
7719;SDS011;3902;49.474;8.616;2024-01-15T03:29:08;21.00;;;13.80;;
7719;SDS011;3902;49.474;8.616;2024-01-15T03:31:34;23.30;;;15.50;;
7719;SDS011;3902;49.474;8.616;2024-01-15T03:34:00;25.33;;;15.10;;
7719;SDS011;3902;49.474;8.616;2024-01-15T03:36:25;25.80;;;15.23;;
7719;SDS011;3902;49.474;8.616;2024-01-15T03:38:51;23.83;;;14.30;;
7719;SDS011;3902;49.474;8.616;2024-01-15T03:41:16;28.03;;;16.40;;
7719;SDS011;3902;49.474;8.616;2024-01-15T03:43:42;23.47;;;15.70;;
7719;SDS011;3902;49.474;8.616;2024-01-15T03:46:08;25.23;;;16.93;;
7719;SDS011;3902;49.474;8.616;2024-01-15T03:48:33;24.33;;;16.27;;
7719;SDS011;3902;49.474;8.616;2024-01-15T03:50:59;25.27;;;16.43;;
7719;SDS011;3902;49.474;8.616;2024-01-15T03:53:25;23.23;;;15.70;;
7719;SDS011;3902;49.474;8.616;2024-01-15T03:55:56;22.73;;;15.10;;
7719;SDS011;3902;49.474;8.616;2024-01-15T03:58:21;27.03;;;16.77;;
7719;SDS011;3902;49.474;8.616;2024-01-15T04:00:47;22.33;;;15.40;;
7719;SDS011;3902;49.474;8.616;2024-01-15T04:03:13;24.03;;;15.27;;
7719;SDS011;3902;49.474;8.616;2024-01-15T04:05:38;23.70;;;14.93;;
7719;SDS011;3902;49.474;8.616;2024-01-15T04:08:04;24.63;;;15.10;;
7719;SDS011;3902;49.474;8.616;2024-01-15T04:10:29;26.37;;;17.13;;
7719;SDS011;3902;49.474;8.616;2024-01-15T04:12:55;23.63;;;15.63;;
7719;SDS011;3902;49.474;8.616;2024-01-15T04:15:21;23.87;;;15.00;;
7719;SDS011;3902;49.474;8.616;2024-01-15T04:17:46;25.00;;;16.30;;
7719;SDS011;3902;49.474;8.616;2024-01-15T04:20:12;23.80;;;15.47;;
7719;SDS011;3902;49.474;8.616;2024-01-15T04:22:37;23.30;;;15.10;;
7719;SDS011;3902;49.474;8.616;2024-01-15T04:25:03;22.97;;;15.10;;
7719;SDS011;3902;49.474;8.616;2024-01-15T04:27:29;21.80;;;15.07;;
7719;SDS011;3902;49.474;8.616;2024-01-15T04:29:54;22.23;;;15.53;;
7719;SDS011;3902;49.474;8.616;2024-01-15T04:32:20;22.53;;;14.90;;
7719;SDS011;3902;49.474;8.616;2024-01-15T04:34:45;23.27;;;14.37;;
7719;SDS011;3902;49.474;8.616;2024-01-15T04:37:11;22.00;;;14.77;;
7719;SDS011;3902;49.474;8.616;2024-01-15T04:39:38;20.30;;;13.47;;
7719;SDS011;3902;49.474;8.616;2024-01-15T04:42:03;25.03;;;14.80;;
7719;SDS011;3902;49.474;8.616;2024-01-15T04:44:29;22.90;;;14.30;;
7719;SDS011;3902;49.474;8.616;2024-01-15T04:46:54;20.37;;;13.50;;
7719;SDS011;3902;49.474;8.616;2024-01-15T04:49:20;22.33;;;14.90;;
7719;SDS011;3902;49.474;8.616;2024-01-15T04:51:45;18.93;;;13.10;;
7719;SDS011;3902;49.474;8.616;2024-01-15T04:54:11;24.77;;;15.43;;
7719;SDS011;3902;49.474;8.616;2024-01-15T04:56:37;18.50;;;12.70;;
7719;SDS011;3902;49.474;8.616;2024-01-15T04:59:02;17.70;;;13.17;;
7719;SDS011;3902;49.474;8.616;2024-01-15T05:01:31;20.10;;;13.63;;
7719;SDS011;3902;49.474;8.616;2024-01-15T05:03:57;20.40;;;13.90;;
7719;SDS011;3902;49.474;8.616;2024-01-15T05:06:23;22.37;;;14.10;;
7719;SDS011;3902;49.474;8.616;2024-01-15T05:08:49;18.90;;;12.50;;
7719;SDS011;3902;49.474;8.616;2024-01-15T05:11:14;22.17;;;14.57;;
7719;SDS011;3902;49.474;8.616;2024-01-15T05:13:40;18.83;;;12.90;;
7719;SDS011;3902;49.474;8.616;2024-01-15T05:16:06;20.87;;;12.70;;
7719;SDS011;3902;49.474;8.616;2024-01-15T05:18:32;21.63;;;13.63;;
7719;SDS011;3902;49.474;8.616;2024-01-15T05:20:57;20.63;;;13.50;;
7719;SDS011;3902;49.474;8.616;2024-01-15T05:23:23;19.83;;;12.97;;
7719;SDS011;3902;49.474;8.616;2024-01-15T05:25:48;21.23;;;14.60;;
7719;SDS011;3902;49.474;8.616;2024-01-15T05:28:14;20.90;;;13.87;;
7719;SDS011;3902;49.474;8.616;2024-01-15T05:30:39;20.63;;;13.70;;
7719;SDS011;3902;49.474;8.616;2024-01-15T05:33:05;23.47;;;13.90;;
7719;SDS011;3902;49.474;8.616;2024-01-15T05:35:32;24.20;;;14.30;;
7719;SDS011;3902;49.474;8.616;2024-01-15T05:37:58;21.33;;;13.83;;
7719;SDS011;3902;49.474;8.616;2024-01-15T05:40:24;22.13;;;14.70;;
7719;SDS011;3902;49.474;8.616;2024-01-15T05:42:49;24.07;;;14.40;;
7719;SDS011;3902;49.474;8.616;2024-01-15T05:45:15;23.73;;;15.77;;
7719;SDS011;3902;49.474;8.616;2024-01-15T05:47:41;23.20;;;15.33;;
7719;SDS011;3902;49.474;8.616;2024-01-15T05:50:06;21.60;;;14.07;;
7719;SDS011;3902;49.474;8.616;2024-01-15T05:52:32;22.40;;;14.90;;
7719;SDS011;3902;49.474;8.616;2024-01-15T05:54:57;20.17;;;14.60;;
7719;SDS011;3902;49.474;8.616;2024-01-15T05:57:23;18.97;;;12.60;;
7719;SDS011;3902;49.474;8.616;2024-01-15T05:59:49;20.00;;;13.63;;
7719;SDS011;3902;49.474;8.616;2024-01-15T06:02:14;24.77;;;15.73;;
7719;SDS011;3902;49.474;8.616;2024-01-15T06:04:40;26.20;;;16.83;;
7719;SDS011;3902;49.474;8.616;2024-01-15T06:07:05;22.33;;;15.47;;
7719;SDS011;3902;49.474;8.616;2024-01-15T06:09:31;21.93;;;15.50;;
7719;SDS011;3902;49.474;8.616;2024-01-15T06:11:56;21.50;;;15.00;;
7719;SDS011;3902;49.474;8.616;2024-01-15T06:14:22;24.33;;;15.40;;
7719;SDS011;3902;49.474;8.616;2024-01-15T06:16:47;23.73;;;15.20;;
7719;SDS011;3902;49.474;8.616;2024-01-15T06:19:14;21.70;;;14.10;;
7719;SDS011;3902;49.474;8.616;2024-01-15T06:21:39;20.30;;;14.00;;
7719;SDS011;3902;49.474;8.616;2024-01-15T06:24:05;22.37;;;15.23;;
7719;SDS011;3902;49.474;8.616;2024-01-15T06:26:30;19.40;;;13.53;;
7719;SDS011;3902;49.474;8.616;2024-01-15T06:28:56;20.23;;;14.40;;
7719;SDS011;3902;49.474;8.616;2024-01-15T06:31:21;19.13;;;13.40;;
7719;SDS011;3902;49.474;8.616;2024-01-15T06:33:47;17.07;;;12.50;;
7719;SDS011;3902;49.474;8.616;2024-01-15T06:36:14;19.70;;;13.60;;
7719;SDS011;3902;49.474;8.616;2024-01-15T06:38:41;22.27;;;15.30;;
7719;SDS011;3902;49.474;8.616;2024-01-15T06:41:07;21.10;;;14.27;;
7719;SDS011;3902;49.474;8.616;2024-01-15T06:43:33;18.90;;;13.07;;
7719;SDS011;3902;49.474;8.616;2024-01-15T06:45:59;21.37;;;13.90;;
7719;SDS011;3902;49.474;8.616;2024-01-15T06:48:24;20.03;;;13.67;;
7719;SDS011;3902;49.474;8.616;2024-01-15T06:50:50;18.20;;;13.53;;
7719;SDS011;3902;49.474;8.616;2024-01-15T06:53:15;20.23;;;13.63;;
7719;SDS011;3902;49.474;8.616;2024-01-15T06:55:41;23.47;;;15.63;;
7719;SDS011;3902;49.474;8.616;2024-01-15T06:58:07;23.90;;;16.10;;
7719;SDS011;3902;49.474;8.616;2024-01-15T07:00:32;23.13;;;14.50;;
7719;SDS011;3902;49.474;8.616;2024-01-15T07:02:58;22.17;;;15.30;;
7719;SDS011;3902;49.474;8.616;2024-01-15T07:05:24;21.37;;;15.10;;
7719;SDS011;3902;49.474;8.616;2024-01-15T07:07:49;22.67;;;14.70;;
7719;SDS011;3902;49.474;8.616;2024-01-15T07:10:15;23.37;;;16.40;;
7719;SDS011;3902;49.474;8.616;2024-01-15T07:12:44;21.30;;;14.77;;
7719;SDS011;3902;49.474;8.616;2024-01-15T07:15:10;26.87;;;15.50;;
7719;SDS011;3902;49.474;8.616;2024-01-15T07:17:35;21.23;;;14.40;;
7719;SDS011;3902;49.474;8.616;2024-01-15T07:20:04;18.10;;;14.10;;
7719;SDS011;3902;49.474;8.616;2024-01-15T07:22:33;20.10;;;14.30;;
7719;SDS011;3902;49.474;8.616;2024-01-15T07:24:58;20.67;;;13.43;;
7719;SDS011;3902;49.474;8.616;2024-01-15T07:27:24;22.47;;;15.93;;
7719;SDS011;3902;49.474;8.616;2024-01-15T07:29:50;19.30;;;13.87;;
7719;SDS011;3902;49.474;8.616;2024-01-15T07:32:15;19.07;;;13.47;;
7719;SDS011;3902;49.474;8.616;2024-01-15T07:34:41;20.87;;;14.53;;
7719;SDS011;3902;49.474;8.616;2024-01-15T07:37:06;21.10;;;14.40;;
7719;SDS011;3902;49.474;8.616;2024-01-15T07:39:32;23.70;;;14.83;;
7719;SDS011;3902;49.474;8.616;2024-01-15T07:41:58;20.40;;;14.40;;
7719;SDS011;3902;49.474;8.616;2024-01-15T07:44:23;20.13;;;14.27;;
7719;SDS011;3902;49.474;8.616;2024-01-15T07:46:49;23.70;;;15.20;;
7719;SDS011;3902;49.474;8.616;2024-01-15T07:49:14;20.17;;;14.30;;
7719;SDS011;3902;49.474;8.616;2024-01-15T07:51:41;21.53;;;15.03;;
7719;SDS011;3902;49.474;8.616;2024-01-15T07:54:08;18.90;;;13.70;;
7719;SDS011;3902;49.474;8.616;2024-01-15T07:56:34;19.37;;;13.90;;
7719;SDS011;3902;49.474;8.616;2024-01-15T07:59:17;17.73;;;13.00;;
7719;SDS011;3902;49.474;8.616;2024-01-15T08:01:43;19.60;;;13.70;;
7719;SDS011;3902;49.474;8.616;2024-01-15T08:04:08;21.03;;;14.50;;
7719;SDS011;3902;49.474;8.616;2024-01-15T08:06:37;20.43;;;14.13;;
7719;SDS011;3902;49.474;8.616;2024-01-15T08:09:03;19.17;;;13.93;;
7719;SDS011;3902;49.474;8.616;2024-01-15T08:11:29;17.60;;;13.27;;
7719;SDS011;3902;49.474;8.616;2024-01-15T08:13:55;19.40;;;14.50;;
7719;SDS011;3902;49.474;8.616;2024-01-15T08:16:21;19.83;;;14.70;;
7719;SDS011;3902;49.474;8.616;2024-01-15T08:18:46;22.17;;;14.70;;
7719;SDS011;3902;49.474;8.616;2024-01-15T08:21:12;24.90;;;15.03;;
7719;SDS011;3902;49.474;8.616;2024-01-15T08:23:38;20.70;;;14.50;;
7719;SDS011;3902;49.474;8.616;2024-01-15T08:26:04;22.30;;;14.97;;
7719;SDS011;3902;49.474;8.616;2024-01-15T08:28:29;21.03;;;13.90;;
7719;SDS011;3902;49.474;8.616;2024-01-15T08:30:55;21.20;;;14.93;;
7719;SDS011;3902;49.474;8.616;2024-01-15T08:33:21;23.53;;;13.80;;
7719;SDS011;3902;49.474;8.616;2024-01-15T08:35:46;19.30;;;13.87;;
7719;SDS011;3902;49.474;8.616;2024-01-15T08:38:12;21.60;;;14.80;;
7719;SDS011;3902;49.474;8.616;2024-01-15T08:40:38;17.90;;;13.50;;
7719;SDS011;3902;49.474;8.616;2024-01-15T08:43:03;19.50;;;13.83;;
7719;SDS011;3902;49.474;8.616;2024-01-15T08:45:29;21.37;;;14.43;;
7719;SDS011;3902;49.474;8.616;2024-01-15T08:47:55;21.10;;;14.77;;
7719;SDS011;3902;49.474;8.616;2024-01-15T08:50:20;17.83;;;13.20;;
7719;SDS011;3902;49.474;8.616;2024-01-15T08:52:46;21.57;;;13.67;;
7719;SDS011;3902;49.474;8.616;2024-01-15T08:55:11;19.90;;;14.10;;
7719;SDS011;3902;49.474;8.616;2024-01-15T08:57:38;22.07;;;14.87;;
7719;SDS011;3902;49.474;8.616;2024-01-15T09:00:04;20.30;;;14.20;;
7719;SDS011;3902;49.474;8.616;2024-01-15T09:02:33;19.90;;;14.00;;
7719;SDS011;3902;49.474;8.616;2024-01-15T09:05:00;22.00;;;14.57;;
7719;SDS011;3902;49.474;8.616;2024-01-15T09:07:25;20.23;;;14.73;;
7719;SDS011;3902;49.474;8.616;2024-01-15T09:09:51;20.50;;;14.90;;
7719;SDS011;3902;49.474;8.616;2024-01-15T09:12:17;20.53;;;14.70;;
7719;SDS011;3902;49.474;8.616;2024-01-15T09:14:45;21.03;;;15.17;;
7719;SDS011;3902;49.474;8.616;2024-01-15T09:17:11;19.77;;;14.73;;
7719;SDS011;3902;49.474;8.616;2024-01-15T09:19:37;20.97;;;13.80;;
7719;SDS011;3902;49.474;8.616;2024-01-15T09:22:04;20.23;;;14.90;;
7719;SDS011;3902;49.474;8.616;2024-01-15T09:24:30;20.97;;;14.77;;
7719;SDS011;3902;49.474;8.616;2024-01-15T09:26:55;20.27;;;14.73;;
7719;SDS011;3902;49.474;8.616;2024-01-15T09:29:21;21.30;;;15.50;;
7719;SDS011;3902;49.474;8.616;2024-01-15T09:31:48;20.37;;;15.10;;
7719;SDS011;3902;49.474;8.616;2024-01-15T09:34:15;17.60;;;13.40;;
7719;SDS011;3902;49.474;8.616;2024-01-15T09:36:40;19.73;;;13.80;;
7719;SDS011;3902;49.474;8.616;2024-01-15T09:39:07;20.73;;;15.03;;
7719;SDS011;3902;49.474;8.616;2024-01-15T09:41:34;20.30;;;14.90;;
7719;SDS011;3902;49.474;8.616;2024-01-15T09:44:01;18.97;;;13.40;;
7719;SDS011;3902;49.474;8.616;2024-01-15T09:46:28;19.37;;;14.17;;
7719;SDS011;3902;49.474;8.616;2024-01-15T09:48:53;18.83;;;13.40;;
7719;SDS011;3902;49.474;8.616;2024-01-15T09:51:19;18.20;;;13.50;;
7719;SDS011;3902;49.474;8.616;2024-01-15T09:53:45;18.03;;;13.60;;
7719;SDS011;3902;49.474;8.616;2024-01-15T09:56:12;16.53;;;12.80;;
7719;SDS011;3902;49.474;8.616;2024-01-15T09:58:38;20.93;;;14.33;;
7719;SDS011;3902;49.474;8.616;2024-01-15T10:01:04;19.93;;;14.00;;
7719;SDS011;3902;49.474;8.616;2024-01-15T10:03:30;17.70;;;12.40;;
7719;SDS011;3902;49.474;8.616;2024-01-15T10:05:55;19.50;;;13.90;;
7719;SDS011;3902;49.474;8.616;2024-01-15T10:08:24;16.40;;;12.30;;
7719;SDS011;3902;49.474;8.616;2024-01-15T10:10:50;15.10;;;12.03;;
7719;SDS011;3902;49.474;8.616;2024-01-15T10:13:16;15.87;;;12.50;;
7719;SDS011;3902;49.474;8.616;2024-01-15T10:15:44;15.83;;;12.40;;
7719;SDS011;3902;49.474;8.616;2024-01-15T10:18:12;17.40;;;12.33;;
7719;SDS011;3902;49.474;8.616;2024-01-15T10:20:37;15.93;;;12.13;;
7719;SDS011;3902;49.474;8.616;2024-01-15T10:23:04;14.87;;;11.60;;
7719;SDS011;3902;49.474;8.616;2024-01-15T10:25:30;14.27;;;11.60;;
7719;SDS011;3902;49.474;8.616;2024-01-15T10:27:59;15.57;;;11.40;;
7719;SDS011;3902;49.474;8.616;2024-01-15T10:30:26;13.57;;;11.50;;
7719;SDS011;3902;49.474;8.616;2024-01-15T10:33:01;16.67;;;13.43;;
7719;SDS011;3902;49.474;8.616;2024-01-15T10:35:31;16.50;;;12.20;;
7719;SDS011;3902;49.474;8.616;2024-01-15T10:38:01;18.03;;;12.27;;
7719;SDS011;3902;49.474;8.616;2024-01-15T10:40:27;17.00;;;13.40;;
7719;SDS011;3902;49.474;8.616;2024-01-15T10:42:54;17.63;;;11.63;;
7719;SDS011;3902;49.474;8.616;2024-01-15T10:45:19;15.60;;;11.97;;
7719;SDS011;3902;49.474;8.616;2024-01-15T10:47:45;15.90;;;12.83;;
7719;SDS011;3902;49.474;8.616;2024-01-15T10:50:11;15.23;;;11.93;;
7719;SDS011;3902;49.474;8.616;2024-01-15T10:52:37;16.20;;;11.90;;
7719;SDS011;3902;49.474;8.616;2024-01-15T10:55:05;15.70;;;12.30;;
7719;SDS011;3902;49.474;8.616;2024-01-15T10:57:33;14.87;;;11.80;;
7719;SDS011;3902;49.474;8.616;2024-01-15T11:00:03;16.07;;;11.97;;
7719;SDS011;3902;49.474;8.616;2024-01-15T11:02:31;16.53;;;12.07;;
7719;SDS011;3902;49.474;8.616;2024-01-15T11:05:01;13.23;;;10.70;;
7719;SDS011;3902;49.474;8.616;2024-01-15T11:07:26;15.23;;;11.53;;
7719;SDS011;3902;49.474;8.616;2024-01-15T11:09:52;14.53;;;12.03;;
7719;SDS011;3902;49.474;8.616;2024-01-15T11:12:18;13.60;;;10.87;;
7719;SDS011;3902;49.474;8.616;2024-01-15T11:14:50;16.13;;;12.10;;
7719;SDS011;3902;49.474;8.616;2024-01-15T11:17:17;15.40;;;10.93;;
7719;SDS011;3902;49.474;8.616;2024-01-15T11:19:47;14.70;;;12.00;;
7719;SDS011;3902;49.474;8.616;2024-01-15T11:24:56;14.07;;;11.10;;
7719;SDS011;3902;49.474;8.616;2024-01-15T11:27:41;14.47;;;11.20;;
7719;SDS011;3902;49.474;8.616;2024-01-15T11:30:09;16.23;;;11.83;;
7719;SDS011;3902;49.474;8.616;2024-01-15T11:32:36;14.67;;;11.33;;
7719;SDS011;3902;49.474;8.616;2024-01-15T11:35:02;15.20;;;11.30;;
7719;SDS011;3902;49.474;8.616;2024-01-15T11:40:17;15.30;;;12.10;;
7719;SDS011;3902;49.474;8.616;2024-01-15T11:42:47;15.37;;;10.87;;
7719;SDS011;3902;49.474;8.616;2024-01-15T11:45:14;16.57;;;12.33;;
7719;SDS011;3902;49.474;8.616;2024-01-15T11:50:31;14.47;;;10.80;;
7719;SDS011;3902;49.474;8.616;2024-01-15T11:53:00;17.30;;;11.87;;
7719;SDS011;3902;49.474;8.616;2024-01-15T11:55:29;15.40;;;11.70;;
7719;SDS011;3902;49.474;8.616;2024-01-15T11:58:00;15.00;;;10.87;;
7719;SDS011;3902;49.474;8.616;2024-01-15T12:00:27;13.70;;;10.33;;
7719;SDS011;3902;49.474;8.616;2024-01-15T12:02:53;15.80;;;11.90;;
7719;SDS011;3902;49.474;8.616;2024-01-15T12:05:19;14.27;;;11.00;;
7719;SDS011;3902;49.474;8.616;2024-01-15T12:07:49;15.10;;;11.87;;
7719;SDS011;3902;49.474;8.616;2024-01-15T12:10:15;15.83;;;12.33;;
7719;SDS011;3902;49.474;8.616;2024-01-15T12:15:30;17.10;;;12.47;;
7719;SDS011;3902;49.474;8.616;2024-01-15T12:17:57;15.67;;;11.97;;
7719;SDS011;3902;49.474;8.616;2024-01-15T12:20:24;14.17;;;11.63;;
7719;SDS011;3902;49.474;8.616;2024-01-15T12:22:51;14.77;;;11.50;;
7719;SDS011;3902;49.474;8.616;2024-01-15T12:25:16;13.17;;;10.13;;
7719;SDS011;3902;49.474;8.616;2024-01-15T12:27:42;12.90;;;9.70;;
7719;SDS011;3902;49.474;8.616;2024-01-15T12:30:10;15.50;;;11.60;;
7719;SDS011;3902;49.474;8.616;2024-01-15T12:32:36;11.50;;;9.90;;
7719;SDS011;3902;49.474;8.616;2024-01-15T12:35:02;11.90;;;8.90;;
7719;SDS011;3902;49.474;8.616;2024-01-15T12:37:29;11.17;;;9.13;;
7719;SDS011;3902;49.474;8.616;2024-01-15T12:39:55;12.63;;;9.93;;
7719;SDS011;3902;49.474;8.616;2024-01-15T12:42:21;13.27;;;10.17;;
7719;SDS011;3902;49.474;8.616;2024-01-15T12:44:46;12.60;;;10.23;;
7719;SDS011;3902;49.474;8.616;2024-01-15T12:47:12;11.23;;;9.83;;
7719;SDS011;3902;49.474;8.616;2024-01-15T12:49:39;11.50;;;9.70;;
7719;SDS011;3902;49.474;8.616;2024-01-15T12:52:07;11.90;;;9.40;;
7719;SDS011;3902;49.474;8.616;2024-01-15T12:54:33;11.17;;;9.97;;
7719;SDS011;3902;49.474;8.616;2024-01-15T12:56:59;13.13;;;10.10;;
7719;SDS011;3902;49.474;8.616;2024-01-15T12:59:24;11.27;;;9.63;;
7719;SDS011;3902;49.474;8.616;2024-01-15T13:01:50;12.93;;;9.80;;
7719;SDS011;3902;49.474;8.616;2024-01-15T13:04:22;11.13;;;9.07;;
7719;SDS011;3902;49.474;8.616;2024-01-15T13:06:51;10.20;;;8.90;;
7719;SDS011;3902;49.474;8.616;2024-01-15T13:09:17;10.90;;;9.10;;
7719;SDS011;3902;49.474;8.616;2024-01-15T13:11:45;18.33;;;9.50;;
7719;SDS011;3902;49.474;8.616;2024-01-15T13:14:11;12.13;;;9.63;;
7719;SDS011;3902;49.474;8.616;2024-01-15T13:16:38;10.40;;;8.70;;
7719;SDS011;3902;49.474;8.616;2024-01-15T13:19:06;9.90;;;8.70;;
7719;SDS011;3902;49.474;8.616;2024-01-15T13:21:33;10.63;;;9.53;;
7719;SDS011;3902;49.474;8.616;2024-01-15T13:23:58;11.27;;;9.10;;
7719;SDS011;3902;49.474;8.616;2024-01-15T13:26:24;11.20;;;9.30;;
7719;SDS011;3902;49.474;8.616;2024-01-15T13:28:50;11.50;;;9.53;;
7719;SDS011;3902;49.474;8.616;2024-01-15T13:31:15;11.83;;;9.20;;
7719;SDS011;3902;49.474;8.616;2024-01-15T13:33:41;11.97;;;9.03;;
7719;SDS011;3902;49.474;8.616;2024-01-15T13:36:06;9.07;;;7.90;;
7719;SDS011;3902;49.474;8.616;2024-01-15T13:38:36;12.63;;;9.57;;
7719;SDS011;3902;49.474;8.616;2024-01-15T13:41:03;11.10;;;9.50;;
7719;SDS011;3902;49.474;8.616;2024-01-15T13:43:29;11.10;;;9.13;;
7719;SDS011;3902;49.474;8.616;2024-01-15T13:45:56;12.47;;;8.33;;
7719;SDS011;3902;49.474;8.616;2024-01-15T13:48:21;9.90;;;8.00;;
7719;SDS011;3902;49.474;8.616;2024-01-15T13:50:46;10.50;;;8.87;;
7719;SDS011;3902;49.474;8.616;2024-01-15T13:53:12;11.70;;;9.40;;
7719;SDS011;3902;49.474;8.616;2024-01-15T13:55:38;11.17;;;9.03;;
7719;SDS011;3902;49.474;8.616;2024-01-15T13:58:03;12.10;;;8.90;;
7719;SDS011;3902;49.474;8.616;2024-01-15T14:00:30;10.63;;;8.63;;
7719;SDS011;3902;49.474;8.616;2024-01-15T14:02:57;9.63;;;8.10;;
7719;SDS011;3902;49.474;8.616;2024-01-15T14:05:23;10.37;;;8.90;;
7719;SDS011;3902;49.474;8.616;2024-01-15T14:07:48;10.80;;;8.60;;
7719;SDS011;3902;49.474;8.616;2024-01-15T14:10:14;11.00;;;8.90;;
7719;SDS011;3902;49.474;8.616;2024-01-15T14:12:40;10.53;;;8.80;;
7719;SDS011;3902;49.474;8.616;2024-01-15T14:15:06;11.73;;;9.40;;
7719;SDS011;3902;49.474;8.616;2024-01-15T14:17:32;10.40;;;7.73;;
7719;SDS011;3902;49.474;8.616;2024-01-15T14:19:57;10.57;;;9.00;;
7719;SDS011;3902;49.474;8.616;2024-01-15T14:22:23;12.53;;;9.07;;
7719;SDS011;3902;49.474;8.616;2024-01-15T14:24:49;11.60;;;8.77;;
7719;SDS011;3902;49.474;8.616;2024-01-15T14:27:15;11.30;;;9.13;;
7719;SDS011;3902;49.474;8.616;2024-01-15T14:29:41;11.40;;;8.70;;
7719;SDS011;3902;49.474;8.616;2024-01-15T14:32:07;11.70;;;7.90;;
7719;SDS011;3902;49.474;8.616;2024-01-15T14:34:32;10.97;;;8.13;;
7719;SDS011;3902;49.474;8.616;2024-01-15T14:36:58;8.43;;;7.53;;
7719;SDS011;3902;49.474;8.616;2024-01-15T14:39:24;9.20;;;7.57;;
7719;SDS011;3902;49.474;8.616;2024-01-15T14:41:50;10.10;;;8.03;;
7719;SDS011;3902;49.474;8.616;2024-01-15T14:44:16;10.40;;;7.70;;
7719;SDS011;3902;49.474;8.616;2024-01-15T14:46:41;10.20;;;8.20;;
7719;SDS011;3902;49.474;8.616;2024-01-15T14:49:07;10.73;;;8.67;;
7719;SDS011;3902;49.474;8.616;2024-01-15T14:51:33;11.57;;;8.47;;
7719;SDS011;3902;49.474;8.616;2024-01-15T14:53:59;11.17;;;9.00;;
7719;SDS011;3902;49.474;8.616;2024-01-15T14:56:24;12.50;;;8.80;;